createdAt,value
2018-11-10T00:04:07.353Z,8.60
2018-11-10T00:09:10.517Z,8.50
2018-11-10T00:14:13.750Z,8.50
2018-11-10T00:19:17.017Z,8.50
2018-11-10T00:24:20.328Z,8.50
2018-11-10T00:29:23.579Z,8.50
2018-11-10T00:34:26.817Z,8.50
2018-11-10T00:39:30.107Z,8.50
2018-11-10T00:44:33.342Z,8.50
2018-11-10T00:49:36.579Z,8.50
2018-11-10T00:54:39.855Z,8.50
2018-11-10T00:59:43.083Z,8.50
2018-11-10T01:04:46.460Z,8.50
2018-11-10T01:09:49.792Z,8.50
2018-11-10T01:14:53.044Z,8.50
2018-11-10T01:19:56.296Z,8.50
2018-11-10T01:24:59.584Z,8.50
2018-11-10T01:30:02.827Z,8.50
2018-11-10T01:35:06.109Z,8.50
2018-11-10T01:40:10.636Z,8.50
2018-11-10T01:45:16.050Z,8.40
2018-11-10T01:50:19.309Z,8.40
2018-11-10T01:55:22.612Z,8.40
2018-11-10T02:00:25.846Z,8.40
2018-11-10T02:05:29.095Z,8.40
2018-11-10T02:10:32.321Z,8.40
2018-11-10T02:15:35.570Z,8.30
2018-11-10T02:20:38.925Z,8.30
2018-11-10T02:25:42.220Z,8.30
2018-11-10T02:30:45.554Z,8.30
2018-11-10T02:35:48.791Z,8.20
2018-11-10T02:40:52.028Z,8.20
2018-11-10T02:45:55.332Z,8.20
2018-11-10T02:50:58.600Z,8.20
2018-11-10T02:56:01.856Z,8.20
2018-11-10T03:01:05.139Z,8.20
2018-11-10T03:06:08.365Z,8.20
2018-11-10T03:11:11.600Z,8.10
2018-11-10T03:16:14.928Z,8.10
2018-11-10T03:21:18.164Z,8.10
2018-11-10T03:26:21.422Z,8.10
2018-11-10T03:31:24.648Z,8.10
2018-11-10T03:36:27.885Z,8.00
2018-11-10T03:41:31.131Z,8.00
2018-11-10T03:46:34.440Z,8.00
2018-11-10T03:51:37.683Z,8.00
2018-11-10T03:56:40.912Z,7.90
2018-11-10T04:01:44.201Z,8.00
2018-11-10T04:06:47.459Z,8.00
2018-11-10T04:11:50.680Z,8.00
2018-11-10T04:21:56.940Z,8.00
2018-11-10T04:27:00.268Z,8.00
2018-11-10T04:32:03.572Z,8.00
2018-11-10T04:37:06.828Z,8.00
2018-11-10T04:42:10.068Z,7.90
2018-11-10T04:47:13.385Z,8.00
2018-11-10T04:52:16.626Z,8.00
2018-11-10T04:57:19.850Z,8.00
2018-11-10T05:02:23.084Z,8.00
2018-11-10T05:07:26.402Z,7.90
2018-11-10T05:12:29.649Z,7.90
2018-11-10T05:17:32.880Z,7.90
2018-11-10T05:22:36.118Z,8.00
2018-11-10T05:27:39.392Z,7.90
2018-11-10T05:32:42.623Z,7.90
2018-11-10T05:37:48.156Z,7.90
2018-11-10T05:42:53.598Z,7.90
2018-11-10T05:47:57.115Z,7.90
2018-11-10T05:53:00.727Z,8.00
2018-11-10T05:58:06.042Z,7.90
2018-11-10T06:03:10.945Z,7.90
2018-11-10T06:13:19.266Z,7.80
2018-11-10T06:18:23.038Z,7.90
2018-11-10T06:23:26.292Z,7.90
2018-11-10T06:28:29.588Z,7.90
2018-11-10T06:33:32.823Z,7.80
2018-11-10T06:38:36.069Z,7.90
2018-11-10T06:43:39.392Z,7.90
2018-11-10T06:48:42.628Z,7.90
2018-11-10T06:53:45.851Z,7.90
2018-11-10T06:58:49.104Z,7.90
2018-11-10T07:03:52.344Z,7.90
2018-11-10T07:08:55.597Z,7.90
2018-11-10T07:13:58.925Z,7.90
2018-11-10T07:19:02.333Z,7.80
2018-11-10T07:24:06.036Z,7.90
2018-11-10T07:29:09.385Z,7.90
2018-11-10T07:34:12.608Z,7.90
2018-11-10T07:39:15.860Z,7.90
2018-11-10T07:44:19.099Z,7.90
2018-11-10T07:49:22.402Z,7.90
2018-11-10T07:54:25.685Z,7.90
2018-11-10T07:59:28.904Z,7.90
2018-11-10T08:04:32.170Z,7.90
2018-11-10T08:09:35.405Z,8.00
2018-11-10T08:14:38.649Z,8.00
2018-11-10T08:19:41.921Z,7.90
2018-11-10T08:24:45.293Z,7.90
2018-11-10T08:29:48.532Z,7.90
2018-11-10T08:34:51.787Z,7.80
2018-11-10T08:39:55.676Z,7.90
2018-11-10T08:44:58.983Z,7.90
2018-11-10T08:50:02.299Z,7.80
2018-11-10T08:55:06.184Z,7.90
2018-11-10T09:00:10.360Z,7.80
2018-11-10T09:05:13.696Z,7.80
2018-11-10T09:10:16.973Z,7.90
2018-11-10T09:15:20.208Z,7.80
2018-11-10T09:20:23.448Z,7.90
2018-11-10T09:25:26.791Z,7.90
2018-11-10T09:30:30.080Z,7.80
2018-11-10T09:35:33.319Z,7.90
2018-11-10T09:40:36.616Z,7.90
2018-11-10T09:45:39.948Z,7.90
2018-11-10T09:50:43.251Z,7.90
2018-11-10T09:55:46.440Z,7.90
2018-11-10T10:00:49.852Z,8.00
2018-11-10T10:05:53.189Z,8.00
2018-11-10T10:10:56.445Z,8.20
2018-11-10T10:15:59.817Z,8.20
2018-11-10T10:21:04.019Z,8.30
2018-11-10T10:26:07.261Z,8.30
2018-11-10T10:31:10.545Z,8.30
2018-11-10T10:36:13.835Z,8.40
2018-11-10T10:41:17.093Z,8.40
2018-11-10T10:46:20.364Z,8.50
2018-11-10T10:56:26.639Z,8.40
2018-11-10T11:01:35.331Z,8.50
2018-11-10T11:06:38.593Z,8.60
2018-11-10T11:11:41.897Z,8.60
2018-11-10T11:16:45.228Z,8.70
2018-11-10T11:21:48.486Z,8.70
2018-11-10T11:26:51.815Z,8.60
2018-11-10T11:31:55.208Z,8.60
2018-11-10T11:36:58.654Z,8.60
2018-11-10T11:42:01.955Z,8.70
2018-11-10T11:47:05.289Z,8.80
2018-11-10T11:52:08.581Z,8.90
2018-11-10T11:57:11.893Z,9.00
2018-11-10T12:02:15.175Z,9.10
2018-11-10T12:07:18.536Z,9.00
2018-11-10T12:12:21.982Z,8.90
2018-11-10T12:17:25.231Z,9.00
2018-11-10T12:22:28.504Z,9.00
2018-11-10T12:27:32.033Z,9.10
2018-11-10T12:32:35.423Z,9.10
2018-11-10T12:37:38.735Z,9.10
2018-11-10T12:42:42.208Z,9.10
2018-11-10T12:47:45.513Z,9.00
2018-11-10T12:52:48.771Z,9.10
2018-11-10T12:57:52.054Z,9.10
2018-11-10T13:02:55.276Z,9.10
2018-11-10T13:07:58.634Z,9.20
2018-11-10T13:13:01.909Z,9.10
2018-11-10T13:18:05.209Z,8.90
2018-11-10T13:23:08.572Z,8.90
2018-11-10T13:28:11.965Z,9.00
2018-11-10T13:33:15.300Z,9.10
2018-11-10T13:38:18.682Z,8.90
2018-11-10T13:43:22.148Z,9.00
2018-11-10T13:48:25.415Z,8.90
2018-11-10T13:53:28.780Z,9.00
2018-11-10T13:58:32.240Z,9.10
2018-11-10T14:03:35.751Z,9.00
2018-11-10T14:08:39.023Z,9.00
2018-11-10T14:13:42.298Z,8.90
2018-11-10T14:18:45.553Z,8.90
2018-11-10T14:23:48.859Z,8.90
2018-11-10T14:28:52.224Z,9.00
2018-11-10T14:33:55.456Z,8.90
2018-11-10T14:38:58.696Z,8.90
2018-11-10T14:49:05.702Z,9.00
2018-11-10T14:54:09.060Z,9.00
2018-11-10T14:59:12.364Z,9.00
2018-11-10T15:04:15.629Z,9.00
2018-11-10T15:09:19.037Z,9.00
2018-11-10T15:14:22.376Z,9.00
2018-11-10T15:19:25.820Z,8.90
2018-11-10T15:24:29.203Z,8.80
2018-11-10T15:29:32.486Z,8.80
2018-11-10T15:34:35.865Z,8.80
2018-11-10T15:39:39.192Z,8.80
2018-11-10T15:44:42.476Z,8.70
2018-11-10T15:49:45.815Z,8.70
2018-11-10T15:54:49.191Z,8.70
2018-11-10T15:59:53.585Z,8.70
2018-11-10T16:04:56.835Z,8.70
2018-11-10T16:10:00.370Z,8.70
2018-11-10T16:15:03.779Z,8.70
2018-11-10T16:20:09.405Z,8.70
2018-11-10T16:30:17.067Z,8.70
2018-11-10T16:35:20.424Z,8.70
2018-11-10T16:40:23.832Z,8.70
2018-11-10T16:45:27.179Z,8.60
2018-11-10T16:50:30.534Z,8.60
2018-11-10T16:55:33.822Z,8.70
2018-11-10T17:00:37.178Z,8.70
2018-11-10T17:05:40.719Z,8.70
2018-11-10T17:10:44.116Z,8.60
2018-11-10T17:15:47.360Z,8.60
2018-11-10T17:20:50.779Z,8.70
2018-11-10T17:25:54.056Z,8.60
2018-11-10T17:30:57.395Z,8.60
2018-11-10T17:36:00.744Z,8.50
2018-11-10T17:41:04.092Z,8.60
2018-11-10T17:46:07.426Z,8.50
2018-11-10T17:51:10.788Z,8.60
2018-11-10T17:56:14.075Z,8.50
2018-11-10T18:01:17.500Z,8.50
2018-11-10T18:06:20.925Z,8.50
2018-11-10T18:11:24.429Z,8.40
2018-11-10T18:16:27.881Z,8.40
2018-11-10T18:21:31.304Z,8.40
2018-11-10T18:26:34.679Z,8.40
2018-11-10T18:31:38.080Z,8.40
2018-11-10T18:36:41.465Z,8.40
2018-11-10T18:41:45.569Z,8.40
2018-11-10T18:46:49.055Z,8.40
2018-11-10T18:51:52.218Z,8.30
2018-11-10T18:56:55.700Z,8.10
2018-11-10T19:01:58.934Z,7.80
2018-11-10T19:07:02.369Z,7.60
2018-11-10T19:12:05.739Z,7.70
2018-11-10T19:17:09.088Z,7.60
2018-11-10T19:22:12.495Z,7.50
2018-11-10T19:27:15.878Z,7.20
2018-11-10T19:32:19.205Z,7.10
2018-11-10T19:37:22.488Z,7.00
2018-11-10T19:42:25.815Z,6.90
2018-11-10T19:47:29.169Z,6.80
2018-11-10T19:52:32.537Z,6.70
2018-11-10T19:57:35.859Z,6.60
2018-11-10T20:02:39.245Z,6.50
2018-11-10T20:07:42.678Z,6.20
2018-11-10T20:12:46.156Z,6.30
2018-11-10T20:17:49.610Z,6.20
2018-11-10T20:27:55.959Z,6.10
2018-11-10T20:32:59.401Z,6.20
2018-11-10T20:38:02.703Z,6.30
2018-11-10T20:48:09.225Z,6.70
2018-11-10T20:53:12.553Z,6.80
2018-11-10T20:58:15.956Z,6.90
2018-11-10T21:03:19.304Z,7.00
2018-11-10T21:08:23.696Z,6.90
2018-11-10T21:13:26.948Z,6.80
2018-11-10T21:18:30.209Z,6.60
2018-11-10T21:23:33.612Z,6.60
2018-11-10T21:28:37.118Z,6.70
2018-11-10T21:33:40.611Z,6.80
2018-11-10T21:38:44.116Z,6.90
2018-11-10T21:43:47.836Z,7.00
2018-11-10T21:48:51.129Z,7.10
2018-11-10T21:53:54.671Z,7.30
2018-11-10T21:58:59.113Z,7.30
2018-11-10T22:04:03.951Z,7.40
2018-11-10T22:09:09.427Z,7.40
2018-11-10T22:14:12.638Z,7.40
2018-11-10T22:19:16.042Z,7.40
2018-11-10T22:24:19.635Z,7.40
2018-11-10T22:29:23.297Z,7.40
2018-11-10T22:34:26.523Z,7.40
2018-11-10T22:39:29.801Z,7.40
2018-11-10T22:44:33.045Z,7.40
2018-11-10T22:49:36.292Z,7.40
2018-11-10T22:54:39.625Z,7.50
2018-11-10T22:59:42.860Z,7.50
2018-11-10T23:04:46.139Z,7.50
2018-11-10T23:09:49.393Z,7.60
2018-11-10T23:14:52.708Z,7.60
2018-11-10T23:19:55.943Z,7.60
2018-11-10T23:24:59.269Z,7.70
2018-11-10T23:30:02.599Z,7.70
2018-11-10T23:35:06.978Z,7.70
2018-11-10T23:40:11.960Z,7.70
2018-11-10T23:45:15.623Z,7.70
2018-11-10T23:50:18.967Z,7.70
2018-11-10T23:55:22.203Z,7.60
